sensor_id;sensor_type;location;lat;lon;timestamp;pressure;altitude;pressure_sealevel;temperature;humidity
22930;BME280;11630;42.660;23.292;2024-03-17T00:02:14;68447.83;;;8.25;100.00
22930;BME280;11630;42.660;23.292;2024-03-17T00:04:45;68403.59;;;7.86;100.00
22930;BME280;11630;42.660;23.292;2024-03-17T00:07:15;68402.77;;;7.86;100.00
22930;BME280;11630;42.660;23.292;2024-03-17T00:09:46;68403.59;;;7.88;100.00
22930;BME280;11630;42.660;23.292;2024-03-17T00:12:17;68399.52;;;7.83;100.00
22930;BME280;11630;42.660;23.292;2024-03-17T00:14:48;68393.55;;;7.75;100.00
22930;BME280;11630;42.660;23.292;2024-03-17T00:17:19;68406.03;;;7.89;100.00
22930;BME280;11630;42.660;23.292;2024-03-17T00:19:49;68412.80;;;7.92;100.00
22930;BME280;11630;42.660;23.292;2024-03-17T00:22:20;68414.98;;;7.96;100.00
22930;BME280;11630;42.660;23.292;2024-03-17T00:24:54;68408.48;;;7.93;100.00
22930;BME280;11630;42.660;23.292;2024-03-17T00:27:25;68422.02;;;8.00;100.00
22930;BME280;11630;42.660;23.292;2024-03-17T00:29:56;68414.42;;;7.93;100.00
22930;BME280;11630;42.660;23.292;2024-03-17T00:32:27;68401.98;;;7.89;100.00
22930;BME280;11630;42.660;23.292;2024-03-17T00:34:58;68420.13;;;7.97;100.00
22930;BME280;11630;42.660;23.292;2024-03-17T00:37:29;68391.67;;;7.80;100.00
22930;BME280;11630;42.660;23.292;2024-03-17T00:40:01;68392.45;;;7.74;100.00
22930;BME280;11630;42.660;23.292;2024-03-17T00:42:31;68381.59;;;7.64;100.00
22930;BME280;11630;42.660;23.292;2024-03-17T00:45:03;68375.66;;;7.64;100.00
22930;BME280;11630;42.660;23.292;2024-03-17T00:47:34;68377.80;;;7.61;100.00
22930;BME280;11630;42.660;23.292;2024-03-17T00:50:05;68375.09;;;7.61;100.00
22930;BME280;11630;42.660;23.292;2024-03-17T00:52:35;68387.31;;;7.71;100.00
22930;BME280;11630;42.660;23.292;2024-03-17T00:55:07;68391.11;;;7.74;100.00
22930;BME280;11630;42.660;23.292;2024-03-17T00:57:40;68391.94;;;7.79;100.00
22930;BME280;11630;42.660;23.292;2024-03-17T01:00:13;68395.47;;;7.83;100.00
22930;BME280;11630;42.660;23.292;2024-03-17T01:02:43;68410.63;;;7.90;100.00
22930;BME280;11630;42.660;23.292;2024-03-17T01:05:14;68405.24;;;7.92;100.00
22930;BME280;11630;42.660;23.292;2024-03-17T01:07:45;68378.64;;;7.68;100.00
22930;BME280;11630;42.660;23.292;2024-03-17T01:10:15;68365.33;;;7.50;100.00
22930;BME280;11630;42.660;23.292;2024-03-17T01:12:46;68363.71;;;7.51;100.00
22930;BME280;11630;42.660;23.292;2024-03-17T01:15:17;68348.27;;;7.38;100.00
22930;BME280;11630;42.660;23.292;2024-03-17T01:17:48;68339.30;;;7.26;100.00
22930;BME280;11630;42.660;23.292;2024-03-17T01:20:19;68352.88;;;7.41;100.00
22930;BME280;11630;42.660;23.292;2024-03-17T01:22:50;68330.91;;;7.22;100.00
22930;BME280;11630;42.660;23.292;2024-03-17T01:25:21;68330.63;;;7.18;100.00
22930;BME280;11630;42.660;23.292;2024-03-17T01:27:52;68347.17;;;7.37;100.00
22930;BME280;11630;42.660;23.292;2024-03-17T01:30:24;68334.43;;;7.24;100.00
22930;BME280;11630;42.660;23.292;2024-03-17T01:32:55;68321.70;;;7.16;100.00
22930;BME280;11630;42.660;23.292;2024-03-17T01:35:25;68331.95;;;7.15;100.00
22930;BME280;11630;42.660;23.292;2024-03-17T01:37:56;68332.78;;;7.20;100.00
22930;BME280;11630;42.660;23.292;2024-03-17T01:40:27;68348.25;;;7.33;100.00
22930;BME280;11630;42.660;23.292;2024-03-17T01:42:58;68332.26;;;7.22;100.00
22930;BME280;11630;42.660;23.292;2024-03-17T01:45:35;68323.83;;;7.10;100.00
22930;BME280;11630;42.660;23.292;2024-03-17T01:48:02;68330.88;;;7.14;100.00
22930;BME280;11630;42.660;23.292;2024-03-17T01:50:37;68318.42;;;7.08;100.00
22930;BME280;11630;42.660;23.292;2024-03-17T01:53:09;68313.81;;;7.05;100.00
22930;BME280;11630;42.660;23.292;2024-03-17T01:55:42;68322.48;;;7.13;100.00
22930;BME280;11630;42.660;23.292;2024-03-17T01:58:12;68328.46;;;7.18;100.00
22930;BME280;11630;42.660;23.292;2024-03-17T02:00:43;68333.08;;;7.24;100.00
22930;BME280;11630;42.660;23.292;2024-03-17T02:03:14;68352.58;;;7.37;100.00
22930;BME280;11630;42.660;23.292;2024-03-17T02:05:48;68342.84;;;7.33;100.00
22930;BME280;11630;42.660;23.292;2024-03-17T02:08:19;68321.69;;;7.11;100.00
22930;BME280;11630;42.660;23.292;2024-03-17T02:10:56;68281.83;;;6.73;100.00
22930;BME280;11630;42.660;23.292;2024-03-17T02:13:27;68292.39;;;6.84;100.00
22930;BME280;11630;42.660;23.292;2024-03-17T02:15:58;68286.42;;;6.76;100.00
22930;BME280;11630;42.660;23.292;2024-03-17T02:18:29;68272.63;;;6.67;100.00
22930;BME280;11630;42.660;23.292;2024-03-17T02:20:59;68272.91;;;6.69;100.00
22930;BME280;11630;42.660;23.292;2024-03-17T02:23:33;68286.68;;;6.75;100.00
22930;BME280;11630;42.660;23.292;2024-03-17T02:26:01;68309.22;;;7.02;100.00
22930;BME280;11630;42.660;23.292;2024-03-17T02:28:40;68310.27;;;6.98;100.00
22930;BME280;11630;42.660;23.292;2024-03-17T02:31:12;68283.45;;;6.77;100.00
22930;BME280;11630;42.660;23.292;2024-03-17T02:33:43;68270.71;;;6.62;100.00
22930;BME280;11630;42.660;23.292;2024-03-17T02:36:15;68240.11;;;6.37;100.00
22930;BME280;11630;42.660;23.292;2024-03-17T02:38:44;68248.73;;;6.38;100.00
22930;BME280;11630;42.660;23.292;2024-03-17T02:41:31;68235.23;;;6.33;100.00
22930;BME280;11630;42.660;23.292;2024-03-17T02:44:02;68234.67;;;6.30;100.00
22930;BME280;11630;42.660;23.292;2024-03-17T02:46:33;68247.96;;;6.43;100.00
22930;BME280;11630;42.660;23.292;2024-03-17T02:49:04;68240.92;;;6.39;100.00
22930;BME280;11630;42.660;23.292;2024-03-17T02:51:34;68236.59;;;6.35;100.00
22930;BME280;11630;42.660;23.292;2024-03-17T02:54:05;68218.73;;;6.21;100.00
22930;BME280;11630;42.660;23.292;2024-03-17T02:56:36;68220.86;;;6.18;100.00
22930;BME280;11630;42.660;23.292;2024-03-17T02:59:07;68209.21;;;6.07;100.00
22930;BME280;11630;42.660;23.292;2024-03-17T03:01:38;68216.27;;;6.15;100.00
22930;BME280;11630;42.660;23.292;2024-03-17T03:04:09;68221.13;;;6.17;100.00
22930;BME280;11630;42.660;23.292;2024-03-17T03:06:40;68212.20;;;6.13;100.00
22930;BME280;11630;42.660;23.292;2024-03-17T03:09:11;68220.86;;;6.18;100.00
22930;BME280;11630;42.660;23.292;2024-03-17T03:11:42;68234.66;;;6.27;100.00
22930;BME280;11630;42.660;23.292;2024-03-17T03:14:12;68229.53;;;6.26;100.00
22930;BME280;11630;42.660;23.292;2024-03-17T03:16:43;68231.44;;;6.29;100.00
22930;BME280;11630;42.660;23.292;2024-03-17T03:19:15;68241.16;;;6.33;100.00
22930;BME280;11630;42.660;23.292;2024-03-17T03:21:46;68246.61;;;6.43;100.00
22930;BME280;11630;42.660;23.292;2024-03-17T03:24:17;68273.98;;;6.67;100.00
22930;BME280;11630;42.660;23.292;2024-03-17T03:26:48;68267.20;;;6.62;100.00
22930;BME280;11630;42.660;23.292;2024-03-17T03:29:18;68272.89;;;6.66;100.00
22930;BME280;11630;42.660;23.292;2024-03-17T03:31:49;68290.50;;;6.81;100.00
22930;BME280;11630;42.660;23.292;2024-03-17T03:34:19;68294.31;;;6.87;100.00
22930;BME280;11630;42.660;23.292;2024-03-17T03:36:50;68288.08;;;6.83;100.00
22930;BME280;11630;42.660;23.292;2024-03-17T03:39:21;68293.75;;;6.84;100.00
22930;BME280;11630;42.660;23.292;2024-03-17T03:41:54;68303.50;;;6.90;100.00
22930;BME280;11630;42.660;23.292;2024-03-17T03:44:27;68266.11;;;6.61;100.00
22930;BME280;11630;42.660;23.292;2024-03-17T03:46:57;68261.27;;;6.59;100.00
22930;BME280;11630;42.660;23.292;2024-03-17T03:49:28;68261.78;;;6.57;100.00
22930;BME280;11630;42.660;23.292;2024-03-17T03:51:59;68247.70;;;6.44;100.00
22930;BME280;11630;42.660;23.292;2024-03-17T03:54:30;68230.36;;;6.28;100.00
22930;BME280;11630;42.660;23.292;2024-03-17T03:57:00;68215.45;;;6.16;100.00
22930;BME280;11630;42.660;23.292;2024-03-17T03:59:33;68202.48;;;6.07;100.00
22930;BME280;11630;42.660;23.292;2024-03-17T04:02:03;68215.47;;;6.18;100.00
22930;BME280;11630;42.660;23.292;2024-03-17T04:04:34;68203.00;;;6.05;100.00
22930;BME280;11630;42.660;23.292;2024-03-17T04:07:05;68212.19;;;6.10;100.00
22930;BME280;11630;42.660;23.292;2024-03-17T04:09:36;68243.35;;;6.40;100.00
22930;BME280;11630;42.660;23.292;2024-03-17T04:12:07;68265.02;;;6.60;100.00
22930;BME280;11630;42.660;23.292;2024-03-17T04:14:38;68268.80;;;6.61;100.00
22930;BME280;11630;42.660;23.292;2024-03-17T04:17:09;68229.53;;;6.26;100.00
22930;BME280;11630;42.660;23.292;2024-03-17T04:19:40;68213.55;;;6.13;100.00
22930;BME280;11630;42.660;23.292;2024-03-17T04:22:10;68217.88;;;6.14;100.00
22930;BME280;11630;42.660;23.292;2024-03-17T04:24:42;68185.91;;;5.85;100.00
22930;BME280;11630;42.660;23.292;2024-03-17T04:27:13;68158.28;;;5.62;100.00
22930;BME280;11630;42.660;23.292;2024-03-17T04:29:54;68179.14;;;5.78;100.00
22930;BME280;11630;42.660;23.292;2024-03-17T04:32:20;68187.27;;;5.88;100.00
22930;BME280;11630;42.660;23.292;2024-03-17T04:34:51;68191.08;;;5.94;100.00
22930;BME280;11630;42.660;23.292;2024-03-17T04:37:22;68178.61;;;5.80;100.00
22930;BME280;11630;42.660;23.292;2024-03-17T04:39:51;68178.34;;;5.81;100.00
22930;BME280;11630;42.660;23.292;2024-03-17T04:42:22;68191.61;;;5.92;100.00
22930;BME280;11630;42.660;23.292;2024-03-17T04:44:53;68199.47;;;6.00;100.00
22930;BME280;11630;42.660;23.292;2024-03-17T04:47:24;68211.92;;;6.09;100.00
22930;BME280;11630;42.660;23.292;2024-03-17T04:49:55;68221.13;;;6.17;100.00
22930;BME280;11630;42.660;23.292;2024-03-17T04:52:26;68235.23;;;6.33;100.00
22930;BME280;11630;42.660;23.292;2024-03-17T04:54:57;68252.55;;;6.46;100.00
22930;BME280;11630;42.660;23.292;2024-03-17T04:57:28;68252.53;;;6.41;100.00
22930;BME280;11630;42.660;23.292;2024-03-17T04:59:59;68243.59;;;6.34;100.00
22930;BME280;11630;42.660;23.292;2024-03-17T05:02:30;68228.17;;;6.24;100.00
22930;BME280;11630;42.660;23.292;2024-03-17T05:05:01;68213.00;;;6.08;100.00
22930;BME280;11630;42.660;23.292;2024-03-17T05:07:31;68207.05;;;6.07;100.00
22930;BME280;11630;42.660;23.292;2024-03-17T05:10:03;68202.16;;;5.98;100.00
22930;BME280;11630;42.660;23.292;2024-03-17T05:12:34;68208.67;;;6.08;100.00
22930;BME280;11630;42.660;23.292;2024-03-17T05:15:06;68255.53;;;6.48;100.00
22930;BME280;11630;42.660;23.292;2024-03-17T05:17:37;68251.19;;;6.44;100.00
22930;BME280;11630;42.660;23.292;2024-03-17T05:20:09;68230.62;;;6.27;100.00
22930;BME280;11630;42.660;23.292;2024-03-17T05:22:40;68242.28;;;6.42;100.00
22930;BME280;11630;42.660;23.292;2024-03-17T05:25:11;68262.03;;;6.54;100.00
22930;BME280;11630;42.660;23.292;2024-03-17T05:27:42;68247.67;;;6.42;100.00
22930;BME280;11630;42.660;23.292;2024-03-17T05:30:13;68223.58;;;6.23;100.00
22930;BME280;11630;42.660;23.292;2024-03-17T05:32:44;68253.63;;;6.47;100.00
22930;BME280;11630;42.660;23.292;2024-03-17T05:35:16;68252.28;;;6.47;100.00
22930;BME280;11630;42.660;23.292;2024-03-17T05:37:46;68265.56;;;6.58;100.00
22930;BME280;11630;42.660;23.292;2024-03-17T05:40:18;68275.85;;;6.65;100.00
22930;BME280;11630;42.660;23.292;2024-03-17T05:42:48;68300.54;;;6.91;100.00
22930;BME280;11630;42.660;23.292;2024-03-17T05:45:19;68326.02;;;7.15;100.00
22930;BME280;11630;42.660;23.292;2024-03-17T05:47:53;68339.32;;;7.31;100.00
22930;BME280;11630;42.660;23.292;2024-03-17T05:50:24;68388.66;;;7.68;100.00
22930;BME280;11630;42.660;23.292;2024-03-17T05:52:54;68405.48;;;7.89;100.00
22930;BME280;11630;42.660;23.292;2024-03-17T05:55:25;68437.76;;;8.12;100.00
22930;BME280;11630;42.660;23.292;2024-03-17T05:57:56;68443.20;;;8.20;100.00
22930;BME280;11630;42.660;23.292;2024-03-17T06:00:28;68451.38;;;8.32;100.00
22930;BME280;11630;42.660;23.292;2024-03-17T06:02:59;68417.70;;;8.01;100.00
22930;BME280;11630;42.660;23.292;2024-03-17T06:05:34;68400.88;;;7.83;100.00
22930;BME280;11630;42.660;23.292;2024-03-17T06:08:06;68451.37;;;8.30;100.00
22930;BME280;11630;42.660;23.292;2024-03-17T06:10:38;68473.08;;;8.49;100.00
22930;BME280;11630;42.660;23.292;2024-03-17T06:13:08;68498.89;;;8.77;100.00
22930;BME280;11630;42.660;23.292;2024-03-17T06:15:42;68507.84;;;8.81;100.00
22930;BME280;11630;42.660;23.292;2024-03-17T06:18:14;68513.27;;;8.86;100.00
22930;BME280;11630;42.660;23.292;2024-03-17T06:20:46;68522.24;;;8.96;100.00
22930;BME280;11630;42.660;23.292;2024-03-17T06:23:19;68555.91;;;9.24;100.00
22930;BME280;11630;42.660;23.292;2024-03-17T06:25:54;68549.13;;;9.21;100.00
22930;BME280;11630;42.660;23.292;2024-03-17T06:28:27;68584.16;;;9.47;100.00
22930;BME280;11630;42.660;23.292;2024-03-17T06:30:58;68568.95;;;9.38;100.00
22930;BME280;11630;42.660;23.292;2024-03-17T06:33:29;68574.92;;;9.41;100.00
22930;BME280;11630;42.660;23.292;2024-03-17T06:36:04;68590.95;;;9.60;100.00
22930;BME280;11630;42.660;23.292;2024-03-17T06:38:34;68599.91;;;9.64;100.00
22930;BME280;11630;42.660;23.292;2024-03-17T06:41:05;68616.75;;;9.77;100.00
22930;BME280;11630;42.660;23.292;2024-03-17T06:43:35;68629.82;;;9.94;100.00
22930;BME280;11630;42.660;23.292;2024-03-17T06:46:06;68651.05;;;10.11;100.00
22930;BME280;11630;42.660;23.292;2024-03-17T06:48:36;68648.86;;;10.06;100.00
22930;BME280;11630;42.660;23.292;2024-03-17T06:51:10;68623.56;;;9.87;100.00
22930;BME280;11630;42.660;23.292;2024-03-17T06:53:43;68632.80;;;9.91;100.00
22930;BME280;11630;42.660;23.292;2024-03-17T06:56:15;68611.63;;;9.79;100.00
22930;BME280;11630;42.660;23.292;2024-03-17T06:58:46;68615.69;;;9.81;100.00
22930;BME280;11630;42.660;23.292;2024-03-17T07:01:16;68638.78;;;9.96;100.00
22930;BME280;11630;42.660;23.292;2024-03-17T07:03:46;68609.70;;;9.73;100.00
22930;BME280;11630;42.660;23.292;2024-03-17T07:06:17;68610.80;;;9.77;100.00
22930;BME280;11630;42.660;23.292;2024-03-17T07:08:47;68631.44;;;9.88;100.00
22930;BME280;11630;42.660;23.292;2024-03-17T07:11:18;68644.23;;;10.01;100.00
22930;BME280;11630;42.660;23.292;2024-03-17T07:13:49;68657.01;;;10.14;100.00
22930;BME280;11630;42.660;23.292;2024-03-17T07:16:21;68650.48;;;10.08;100.00
22930;BME280;11630;42.660;23.292;2024-03-17T07:18:52;68649.39;;;10.07;100.00
22930;BME280;11630;42.660;23.292;2024-03-17T07:21:22;68675.23;;;10.32;100.00
22930;BME280;11630;42.660;23.292;2024-03-17T07:23:53;68664.09;;;10.23;100.00
22930;BME280;11630;42.660;23.292;2024-03-17T07:26:24;68670.34;;;10.30;100.00
22930;BME280;11630;42.660;23.292;2024-03-17T07:28:55;68679.31;;;10.37;100.00
22930;BME280;11630;42.660;23.292;2024-03-17T07:31:26;68689.91;;;10.40;100.00
22930;BME280;11630;42.660;23.292;2024-03-17T07:33:57;68723.92;;;10.75;100.00
22930;BME280;11630;42.660;23.292;2024-03-17T07:36:28;68725.55;;;10.76;100.00
22930;BME280;11630;42.660;23.292;2024-03-17T07:38:59;68734.80;;;10.87;100.00
22930;BME280;11630;42.660;23.292;2024-03-17T07:41:30;68729.09;;;10.81;100.00
22930;BME280;11630;42.660;23.292;2024-03-17T07:44:01;68705.98;;;10.61;100.00
22930;BME280;11630;42.660;23.292;2024-03-17T07:46:32;68717.38;;;10.67;100.00
22930;BME280;11630;42.660;23.292;2024-03-17T07:49:03;68723.11;;;10.78;100.00
22930;BME280;11630;42.660;23.292;2024-03-17T07:51:33;68730.19;;;10.84;100.00
22930;BME280;11630;42.660;23.292;2024-03-17T07:54:04;68744.88;;;10.98;100.00
22930;BME280;11630;42.660;23.292;2024-03-17T07:56:35;68747.31;;;10.99;100.00
22930;BME280;11630;42.660;23.292;2024-03-17T07:59:06;68733.73;;;10.89;100.00
22930;BME280;11630;42.660;23.292;2024-03-17T08:01:42;68753.30;;;11.04;100.00
22930;BME280;11630;42.660;23.292;2024-03-17T08:04:13;68740.25;;;10.95;100.00
22930;BME280;11630;42.660;23.292;2024-03-17T08:06:44;68719.03;;;10.71;100.00
22930;BME280;11630;42.660;23.292;2024-03-17T08:09:15;68717.14;;;10.73;100.00
22930;BME280;11630;42.660;23.292;2024-03-17T08:11:46;68723.66;;;10.78;100.00
22930;BME280;11630;42.660;23.292;2024-03-17T08:14:17;68715.48;;;10.69;100.00
22930;BME280;11630;42.660;23.292;2024-03-17T08:16:48;68722.84;;;10.72;100.00
22930;BME280;11630;42.660;23.292;2024-03-17T08:19:19;68719.30;;;10.77;100.00
22930;BME280;11630;42.660;23.292;2024-03-17T08:21:49;68736.17;;;10.92;100.00
22930;BME280;11630;42.660;23.292;2024-03-17T08:24:20;68770.72;;;11.18;100.00
22930;BME280;11630;42.660;23.292;2024-03-17T08:26:51;68750.86;;;11.03;100.00
22930;BME280;11630;42.660;23.292;2024-03-17T08:29:22;68751.41;;;11.06;100.00
22930;BME280;11630;42.660;23.292;2024-03-17T08:31:53;68769.63;;;11.14;100.00
22930;BME280;11630;42.660;23.292;2024-03-17T08:34:24;68742.97;;;11.00;100.00
22930;BME280;11630;42.660;23.292;2024-03-17T08:36:55;68790.04;;;11.34;100.00
22930;BME280;11630;42.660;23.292;2024-03-17T08:39:26;68780.50;;;11.22;100.00
22930;BME280;11630;42.660;23.292;2024-03-17T08:41:56;68796.30;;;11.36;100.00
22930;BME280;11630;42.660;23.292;2024-03-17T08:44:27;68791.95;;;11.37;100.00
22930;BME280;11630;42.660;23.292;2024-03-17T08:46:58;68827.92;;;11.75;100.00
22930;BME280;11630;42.660;23.292;2024-03-17T08:49:29;68800.67;;;11.50;100.00
22930;BME280;11630;42.660;23.292;2024-03-17T08:52:00;68796.30;;;11.44;100.00
22930;BME280;11630;42.660;23.292;2024-03-17T08:54:31;68791.40;;;11.39;100.00
22930;BME280;11630;42.660;23.292;2024-03-17T08:57:02;68811.03;;;11.62;100.00
22930;BME280;11630;42.660;23.292;2024-03-17T08:59:33;68852.41;;;11.95;100.00
22930;BME280;11630;42.660;23.292;2024-03-17T09:02:03;68891.36;;;12.34;100.00
22930;BME280;11630;42.660;23.292;2024-03-17T09:04:35;68943.39;;;12.78;100.00
22930;BME280;11630;42.660;23.292;2024-03-17T09:07:06;69024.39;;;13.53;100.00
22930;BME280;11630;42.660;23.292;2024-03-17T09:09:36;69039.38;;;13.63;98.11
22930;BME280;11630;42.660;23.292;2024-03-17T09:12:08;69059.02;;;13.81;97.63
22930;BME280;11630;42.660;23.292;2024-03-17T09:14:41;69033.11;;;13.56;97.10
22930;BME280;11630;42.660;23.292;2024-03-17T09:17:10;69068.02;;;13.92;94.41
22930;BME280;11630;42.660;23.292;2024-03-17T09:19:41;69083.56;;;14.05;94.84
22930;BME280;11630;42.660;23.292;2024-03-17T09:22:11;69114.16;;;14.33;92.35
22930;BME280;11630;42.660;23.292;2024-03-17T09:24:43;69104.88;;;14.22;89.87
22930;BME280;11630;42.660;23.292;2024-03-17T09:27:13;69134.34;;;14.49;85.94
22930;BME280;11630;42.660;23.292;2024-03-17T09:29:49;69137.06;;;14.49;82.10
22930;BME280;11630;42.660;23.292;2024-03-17T09:32:16;69108.15;;;14.28;81.29
22930;BME280;11630;42.660;23.292;2024-03-17T09:34:49;69143.63;;;14.53;80.54
22930;BME280;11630;42.660;23.292;2024-03-17T09:37:20;69195.75;;;15.09;76.36
22930;BME280;11630;42.660;23.292;2024-03-17T09:39:51;69250.41;;;15.58;73.43
22930;BME280;11630;42.660;23.292;2024-03-17T09:42:22;69231.02;;;15.39;70.25
22930;BME280;11630;42.660;23.292;2024-03-17T09:44:54;69208.59;;;15.17;71.09
22930;BME280;11630;42.660;23.292;2024-03-17T09:47:28;69231.56;;;15.42;68.29
22930;BME280;11630;42.660;23.292;2024-03-17T09:50:00;69284.56;;;15.88;68.84
22930;BME280;11630;42.660;23.292;2024-03-17T09:52:31;69255.34;;;15.55;68.09
22930;BME280;11630;42.660;23.292;2024-03-17T09:55:26;69270.09;;;15.71;65.65
22930;BME280;11630;42.660;23.292;2024-03-17T09:57:36;69260.25;;;15.62;60.99
22930;BME280;11630;42.660;23.292;2024-03-17T10:00:17;69195.23;;;15.06;61.61
22930;BME280;11630;42.660;23.292;2024-03-17T10:02:47;69178.30;;;14.88;62.96
22930;BME280;11630;42.660;23.292;2024-03-17T10:05:24;69196.86;;;15.07;61.58
22930;BME280;11630;42.660;23.292;2024-03-17T10:07:54;69230.75;;;15.36;62.60
22930;BME280;11630;42.660;23.292;2024-03-17T10:10:24;69222.56;;;15.23;62.27
22930;BME280;11630;42.660;23.292;2024-03-17T10:12:57;69231.28;;;15.38;61.95
22930;BME280;11630;42.660;23.292;2024-03-17T10:15:29;69240.84;;;15.48;57.83
22930;BME280;11630;42.660;23.292;2024-03-17T10:18:00;69224.72;;;15.35;55.27
22930;BME280;11630;42.660;23.292;2024-03-17T10:20:30;69249.61;;;15.51;53.94
22930;BME280;11630;42.660;23.292;2024-03-17T10:23:05;69223.38;;;15.28;53.21
22930;BME280;11630;42.660;23.292;2024-03-17T10:25:39;69231.83;;;15.41;55.36
22930;BME280;11630;42.660;23.292;2024-03-17T10:28:14;69228.28;;;15.37;55.32
22930;BME280;11630;42.660;23.292;2024-03-17T10:31:01;69212.98;;;15.21;56.90
22930;BME280;11630;42.660;23.292;2024-03-17T10:33:31;69214.09;;;15.24;57.33
22930;BME280;11630;42.660;23.292;2024-03-17T10:36:03;69237.58;;;15.40;57.91
22930;BME280;11630;42.660;23.292;2024-03-17T10:38:34;69175.83;;;14.87;57.28
22930;BME280;11630;42.660;23.292;2024-03-17T10:41:05;69163.83;;;14.76;56.17
22930;BME280;11630;42.660;23.292;2024-03-17T10:43:36;69106.80;;;14.23;54.75
22930;BME280;11630;42.660;23.292;2024-03-17T10:46:08;69104.61;;;14.18;55.31
22930;BME280;11630;42.660;23.292;2024-03-17T10:48:39;69114.95;;;14.35;55.72
22930;BME280;11630;42.660;23.292;2024-03-17T10:51:17;69119.34;;;14.39;53.89
22930;BME280;11630;42.660;23.292;2024-03-17T10:53:45;69155.09;;;14.68;54.49
22930;BME280;11630;42.660;23.292;2024-03-17T10:56:16;69181.29;;;14.89;52.79
22930;BME280;11630;42.660;23.292;2024-03-17T10:58:50;69193.87;;;14.96;53.59
22930;BME280;11630;42.660;23.292;2024-03-17T11:01:22;69211.06;;;15.18;54.23
22930;BME280;11630;42.660;23.292;2024-03-17T11:03:52;69251.25;;;15.50;53.57
22930;BME280;11630;42.660;23.292;2024-03-17T11:06:23;69255.59;;;15.59;51.08
22930;BME280;11630;42.660;23.292;2024-03-17T11:08:54;69291.14;;;15.84;53.48
22930;BME280;11630;42.660;23.292;2024-03-17T11:11:37;69272.83;;;15.71;54.21
22930;BME280;11630;42.660;23.292;2024-03-17T11:14:20;69253.15;;;15.53;54.08
22930;BME280;11630;42.660;23.292;2024-03-17T11:16:54;69284.03;;;15.80;54.95
22930;BME280;11630;42.660;23.292;2024-03-17T11:19:25;69258.88;;;15.65;57.44
22930;BME280;11630;42.660;23.292;2024-03-17T11:21:56;69294.11;;;15.98;57.70
22930;BME280;11630;42.660;23.292;2024-03-17T11:24:29;69277.73;;;15.78;58.06
22930;BME280;11630;42.660;23.292;2024-03-17T11:27:27;69274.17;;;15.81;56.93
22930;BME280;11630;42.660;23.292;2024-03-17T11:29:33;69271.45;;;15.74;56.38
22930;BME280;11630;42.660;23.292;2024-03-17T11:32:26;69253.70;;;15.56;55.53
22930;BME280;11630;42.660;23.292;2024-03-17T11:34:37;69298.22;;;16.03;55.53
22930;BME280;11630;42.660;23.292;2024-03-17T11:37:08;69313.52;;;16.12;54.09
22930;BME280;11630;42.660;23.292;2024-03-17T11:39:53;69361.13;;;16.48;52.27
22930;BME280;11630;42.660;23.292;2024-03-17T11:42:27;69408.44;;;16.92;51.18
22930;BME280;11630;42.660;23.292;2024-03-17T11:45:03;69414.41;;;17.07;50.48
22930;BME280;11630;42.660;23.292;2024-03-17T11:47:37;69500.10;;;17.81;48.97
22930;BME280;11630;42.660;23.292;2024-03-17T11:50:10;69558.18;;;18.27;46.23
22930;BME280;11630;42.660;23.292;2024-03-17T11:52:42;69511.33;;;17.88;45.55
22930;BME280;11630;42.660;23.292;2024-03-17T11:55:15;69447.83;;;17.33;46.71
22930;BME280;11630;42.660;23.292;2024-03-17T11:57:46;69514.66;;;17.83;45.74
22930;BME280;11630;42.660;23.292;2024-03-17T12:00:21;69528.33;;;18.01;45.35
22930;BME280;11630;42.660;23.292;2024-03-17T12:02:52;69537.89;;;18.13;44.61
22930;BME280;11630;42.660;23.292;2024-03-17T12:05:23;69485.61;;;17.65;44.38
22930;BME280;11630;42.660;23.292;2024-03-17T12:07:54;69444.55;;;17.32;45.07
22930;BME280;11630;42.660;23.292;2024-03-17T12:10:25;69425.11;;;17.11;45.36
22930;BME280;11630;42.660;23.292;2024-03-17T12:12:56;69479.59;;;17.62;46.24
22930;BME280;11630;42.660;23.292;2024-03-17T12:15:27;69529.09;;;18.10;46.04
22930;BME280;11630;42.660;23.292;2024-03-17T12:17:58;69639.78;;;19.06;44.07
22930;BME280;11630;42.660;23.292;2024-03-17T12:20:29;69538.45;;;18.11;44.37
22930;BME280;11630;42.660;23.292;2024-03-17T12:22:59;69462.61;;;17.46;45.33
22930;BME280;11630;42.660;23.292;2024-03-17T12:25:30;69348.00;;;16.38;47.69
22930;BME280;11630;42.660;23.292;2024-03-17T12:28:01;69321.17;;;16.19;48.59
22930;BME280;11630;42.660;23.292;2024-03-17T12:30:32;69242.77;;;15.44;50.15
22930;BME280;11630;42.660;23.292;2024-03-17T12:33:03;69220.08;;;15.35;51.79
22930;BME280;11630;42.660;23.292;2024-03-17T12:35:35;69218.16;;;15.32;53.11
22930;BME280;11630;42.660;23.292;2024-03-17T12:38:19;69228.53;;;15.48;54.15
22930;BME280;11630;42.660;23.292;2024-03-17T12:40:50;69239.23;;;15.37;55.74
22930;BME280;11630;42.660;23.292;2024-03-17T12:43:21;69204.52;;;15.09;57.11
22930;BME280;11630;42.660;23.292;2024-03-17T12:45:55;69173.38;;;14.86;58.97
22930;BME280;11630;42.660;23.292;2024-03-17T12:48:23;69225.56;;;15.20;58.68
22930;BME280;11630;42.660;23.292;2024-03-17T12:50:54;69181.56;;;14.96;59.87
22930;BME280;11630;42.660;23.292;2024-03-17T12:53:25;69219.83;;;15.23;59.95
22930;BME280;11630;42.660;23.292;2024-03-17T12:55:56;69202.06;;;15.06;60.18
22930;BME280;11630;42.660;23.292;2024-03-17T12:58:43;69191.11;;;15.08;60.78
22930;BME280;11630;42.660;23.292;2024-03-17T13:01:22;69194.67;;;15.10;61.75
22930;BME280;11630;42.660;23.292;2024-03-17T13:03:52;69135.44;;;14.55;63.60
22930;BME280;11630;42.660;23.292;2024-03-17T13:06:24;69166.82;;;14.80;64.12
22930;BME280;11630;42.660;23.292;2024-03-17T13:08:54;69173.38;;;14.91;63.70
22930;BME280;11630;42.660;23.292;2024-03-17T13:11:25;69165.73;;;14.76;65.47